Time;durP1;ratioP1;P1;durP2;ratioP2;P2;SDS_P1;SDS_P2;PMS_P1;PMS_P2;Temp;Humidity;BMP_temperature;BMP_pressure;BME280_temperature;BME280_humidity;BME280_pressure;Samples;Min_cycle;Max_cycle;Signal;HPM_P1;HPM_P2
2023/08/25 00:00:46;;;;;;;29.40;24.00;;;;;;;;;;5070337;28;20045;-63
2023/08/25 00:03:12;;;;;;;35.13;27.40;;;;;;;;;;5070169;28;20045;-62
2023/08/25 00:05:38;;;;;;;31.90;26.10;;;;;;;;;;5070124;28;20128;-63
2023/08/25 00:08:04;;;;;;;32.93;27.30;;;;;;;;;;5070586;28;20472;-63
2023/08/25 00:10:30;;;;;;;30.90;26.43;;;;;;;;;;5070190;28;20072;-63
2023/08/25 00:12:56;;;;;;;36.60;29.20;;;;;;;;;;5069725;28;20083;-62
2023/08/25 00:15:23;;;;;;;33.53;27.27;;;;;;;;;;5070264;28;20109;-63
2023/08/25 00:17:50;;;;;;;34.07;27.17;;;;;;;;;;5070050;28;20453;-63
2023/08/25 00:20:16;;;;;;;38.33;28.87;;;;;;;;;;5070224;28;20113;-63
2023/08/25 00:22:42;;;;;;;33.33;27.03;;;;;;;;;;5066554;28;20049;-63
2023/08/25 00:25:09;;;;;;;30.90;26.37;;;;;;;;;;5049937;28;20110;-62
2023/08/25 00:27:35;;;;;;;38.30;28.40;;;;;;;;;;5049719;28;20516;-63
2023/08/25 00:30:01;;;;;;;38.53;29.57;;;;;;;;;;5060031;28;20060;-63
2023/08/25 00:32:27;;;;;;;38.00;28.97;;;;;;;;;;5069752;28;20048;-63
2023/08/25 00:34:53;;;;;;;34.47;27.73;;;;;;;;;;5069238;28;20071;-63
2023/08/25 00:37:19;;;;;;;37.30;29.90;;;;;;;;;;5069432;28;20041;-62
2023/08/25 00:39:45;;;;;;;38.43;30.57;;;;;;;;;;5068517;28;20044;-63
2023/08/25 00:42:11;;;;;;;39.57;28.67;;;;;;;;;;5069665;28;20052;-63
2023/08/25 00:44:38;;;;;;;47.80;31.83;;;;;;;;;;5069380;28;20044;-63
2023/08/25 00:47:04;;;;;;;42.70;29.47;;;;;;;;;;5065944;28;20041;-63
2023/08/25 00:49:31;;;;;;;33.40;28.23;;;;;;;;;;5051482;28;20045;-63
2023/08/25 00:51:58;;;;;;;39.37;29.97;;;;;;;;;;5049418;28;20048;-63
2023/08/25 00:54:28;;;;;;;38.83;29.60;;;;;;;;;;5049299;28;20047;-63
2023/08/25 00:56:54;;;;;;;41.67;28.27;;;;;;;;;;5066737;28;20514;-63
2023/08/25 00:59:20;;;;;;;33.87;27.13;;;;;;;;;;5068869;28;20670;-62
2023/08/25 01:01:47;;;;;;;35.87;28.40;;;;;;;;;;5069449;28;20084;-63
2023/08/25 01:04:13;;;;;;;43.90;29.50;;;;;;;;;;5069096;28;20049;-63
2023/08/25 01:06:39;;;;;;;37.70;27.93;;;;;;;;;;5069230;28;20257;-63
2023/08/25 01:09:10;;;;;;;31.23;25.97;;;;;;;;;;5068843;28;20430;-63
2023/08/25 01:11:39;;;;;;;41.77;27.97;;;;;;;;;;5068756;28;20060;-63
2023/08/25 01:14:11;;;;;;;33.77;26.07;;;;;;;;;;5068684;28;20389;-63
2023/08/25 01:16:44;;;;;;;33.58;26.35;;;;;;;;;;5068921;28;20431;-63
2023/08/25 01:19:18;;;;;;;30.73;26.23;;;;;;;;;;5069020;28;20448;-63
2023/08/25 01:21:48;;;;;;;32.77;26.53;;;;;;;;;;5068452;28;20084;-63
2023/08/25 01:24:19;;;;;;;35.47;26.10;;;;;;;;;;5051012;28;20150;-63
2023/08/25 01:26:46;;;;;;;29.80;25.63;;;;;;;;;;5049094;28;20110;-62
2023/08/25 01:29:12;;;;;;;35.27;27.30;;;;;;;;;;5048924;28;20131;-63
2023/08/25 01:31:38;;;;;;;35.27;28.00;;;;;;;;;;5048225;28;20116;-63
2023/08/25 01:34:04;;;;;;;34.53;26.63;;;;;;;;;;5056761;28;20078;-63
2023/08/25 01:36:41;;;;;;;33.20;26.43;;;;;;;;;;5062179;28;20048;-63
2023/08/25 01:39:11;;;;;;;34.93;27.30;;;;;;;;;;5068660;28;20116;-63
2023/08/25 01:41:43;;;;;;;33.00;26.07;;;;;;;;;;5068281;28;20365;-63
2023/08/25 01:44:10;;;;;;;30.77;27.05;;;;;;;;;;5068733;28;20044;-63
2023/08/25 01:46:37;;;;;;;35.60;27.97;;;;;;;;;;5068558;28;20540;-63
2023/08/25 01:49:05;;;;;;;35.37;27.20;;;;;;;;;;5069258;28;20082;-63
2023/08/25 01:51:32;;;;;;;43.33;28.33;;;;;;;;;;5069063;28;20040;-63
2023/08/25 01:53:58;;;;;;;31.27;27.27;;;;;;;;;;5068038;28;20076;-63
2023/08/25 01:56:24;;;;;;;29.93;26.50;;;;;;;;;;5068420;28;20048;-63
2023/08/25 01:58:50;;;;;;;40.50;30.17;;;;;;;;;;5068875;28;20556;-63
2023/08/25 02:01:16;;;;;;;36.50;28.13;;;;;;;;;;5064539;28;20040;-64
2023/08/25 02:03:42;;;;;;;38.70;29.00;;;;;;;;;;5047836;28;20494;-63
2023/08/25 02:06:11;;;;;;;36.27;28.67;;;;;;;;;;5048437;28;20056;-63
2023/08/25 02:08:37;;;;;;;41.03;29.77;;;;;;;;;;5048405;28;20641;-63
2023/08/25 02:11:04;;;;;;;34.80;29.40;;;;;;;;;;5047908;28;20047;-63
2023/08/25 02:13:30;;;;;;;34.87;28.80;;;;;;;;;;5049456;28;20064;-63
2023/08/25 02:15:56;;;;;;;37.83;28.67;;;;;;;;;;5048464;28;20132;-63
2023/08/25 02:18:22;;;;;;;38.87;30.53;;;;;;;;;;5048376;28;20044;-63
2023/08/25 02:20:48;;;;;;;36.83;28.23;;;;;;;;;;5048381;28;20088;-63
2023/08/25 02:23:14;;;;;;;39.00;30.50;;;;;;;;;;5059516;28;20088;-63
2023/08/25 02:25:40;;;;;;;40.10;30.67;;;;;;;;;;5067421;28;20107;-63
2023/08/25 02:28:06;;;;;;;45.03;31.43;;;;;;;;;;5068275;28;20053;-63
2023/08/25 02:30:32;;;;;;;44.97;33.03;;;;;;;;;;5067876;28;20123;-63
2023/08/25 02:32:59;;;;;;;51.70;33.63;;;;;;;;;;5068107;28;20123;-63
2023/08/25 02:35:25;;;;;;;46.93;33.07;;;;;;;;;;5068148;28;20477;-63
2023/08/25 02:38:00;;;;;;;48.43;35.90;;;;;;;;;;5067548;28;20123;-63
2023/08/25 02:40:27;;;;;;;56.33;37.13;;;;;;;;;;5047825;28;20053;-63
2023/08/25 02:42:55;;;;;;;55.83;37.17;;;;;;;;;;5047978;28;20531;-63
2023/08/25 02:45:24;;;;;;;53.10;37.67;;;;;;;;;;5047587;28;20045;-63
2023/08/25 02:47:50;;;;;;;55.33;38.87;;;;;;;;;;5047636;28;20095;-63
2023/08/25 02:50:16;;;;;;;59.80;40.23;;;;;;;;;;5047888;28;20061;-63
2023/08/25 02:52:42;;;;;;;69.77;41.10;;;;;;;;;;5047637;28;20046;-62
2023/08/25 02:55:08;;;;;;;60.23;39.93;;;;;;;;;;5054887;28;20120;-63
2023/08/25 02:57:34;;;;;;;73.53;43.57;;;;;;;;;;5058146;28;20056;-63
2023/08/25 03:00:00;;;;;;;70.67;44.07;;;;;;;;;;5055312;28;20450;-63
2023/08/25 03:02:26;;;;;;;68.13;43.93;;;;;;;;;;5052134;28;20048;-62
2023/08/25 03:04:52;;;;;;;83.10;47.70;;;;;;;;;;5052059;28;20048;-63
2023/08/25 03:07:18;;;;;;;91.70;48.90;;;;;;;;;;5052424;28;20080;-63
2023/08/25 03:09:44;;;;;;;78.23;45.83;;;;;;;;;;5051188;28;20051;-63
2023/08/25 03:12:10;;;;;;;83.13;47.77;;;;;;;;;;5051813;28;20041;-63
2023/08/25 03:14:36;;;;;;;86.70;49.33;;;;;;;;;;5051676;28;20515;-63
2023/08/25 03:17:02;;;;;;;96.30;50.70;;;;;;;;;;5051953;28;20048;-63
2023/08/25 03:19:28;;;;;;;92.17;52.70;;;;;;;;;;5051315;28;20819;-63
2023/08/25 03:21:54;;;;;;;92.20;51.53;;;;;;;;;;5051206;28;20422;-63
2023/08/25 03:24:20;;;;;;;93.27;52.27;;;;;;;;;;5051334;28;20087;-63
2023/08/25 03:26:46;;;;;;;105.10;56.90;;;;;;;;;;5049293;28;20051;-63
2023/08/25 03:29:12;;;;;;;106.67;58.27;;;;;;;;;;5051551;28;20041;-63
2023/08/25 03:31:38;;;;;;;119.03;59.70;;;;;;;;;;5051090;28;20466;-63
2023/08/25 03:34:04;;;;;;;113.10;58.47;;;;;;;;;;5051310;28;20052;-63
2023/08/25 03:36:30;;;;;;;109.83;57.60;;;;;;;;;;5066311;28;20079;-63
2023/08/25 03:38:56;;;;;;;119.23;60.87;;;;;;;;;;5070808;28;20467;-63
2023/08/25 03:41:22;;;;;;;153.80;64.37;;;;;;;;;;5071071;28;20074;-63
2023/08/25 03:43:48;;;;;;;130.60;64.57;;;;;;;;;;5071502;28;20052;-63
2023/08/25 03:46:14;;;;;;;130.87;61.27;;;;;;;;;;5070331;28;20057;-62
2023/08/25 03:48:40;;;;;;;141.00;64.90;;;;;;;;;;5062513;28;20517;-63
2023/08/25 03:51:06;;;;;;;156.03;66.10;;;;;;;;;;5050570;28;20052;-63
2023/08/25 03:53:32;;;;;;;134.40;62.53;;;;;;;;;;5050697;28;20041;-63
2023/08/25 03:55:58;;;;;;;147.57;66.57;;;;;;;;;;5051011;28;20053;-63
2023/08/25 03:58:25;;;;;;;161.97;70.37;;;;;;;;;;5054309;28;20040;-63
2023/08/25 04:00:55;;;;;;;163.83;70.93;;;;;;;;;;5070628;28;20099;-63
2023/08/25 04:03:21;;;;;;;148.93;66.43;;;;;;;;;;5070681;28;20135;-63
2023/08/25 04:05:47;;;;;;;172.17;70.20;;;;;;;;;;5069900;28;20806;-63
2023/08/25 04:08:13;;;;;;;148.87;67.87;;;;;;;;;;5070412;28;20037;-63
2023/08/25 04:10:41;;;;;;;148.27;65.67;;;;;;;;;;5070781;28;20468;-62
2023/08/25 04:13:07;;;;;;;195.23;76.93;;;;;;;;;;5070419;28;20694;-63
2023/08/25 04:15:33;;;;;;;193.80;73.60;;;;;;;;;;5070478;28;20056;-63
2023/08/25 04:17:59;;;;;;;194.73;74.33;;;;;;;;;;5069449;28;20098;-63
2023/08/25 04:20:26;;;;;;;161.23;70.33;;;;;;;;;;5070646;28;20476;-63
2023/08/25 04:22:52;;;;;;;151.57;68.23;;;;;;;;;;5070129;28;20051;-63
2023/08/25 04:25:18;;;;;;;186.03;75.20;;;;;;;;;;5069823;28;20406;-63
2023/08/25 04:27:44;;;;;;;227.67;79.03;;;;;;;;;;5069990;28;20041;-63
2023/08/25 04:30:10;;;;;;;198.43;77.50;;;;;;;;;;5069556;28;20052;-63
2023/08/25 04:32:36;;;;;;;196.47;76.97;;;;;;;;;;5070011;28;20446;-64
2023/08/25 04:35:03;;;;;;;180.30;72.87;;;;;;;;;;5070098;28;20048;-63
2023/08/25 04:37:29;;;;;;;185.90;75.60;;;;;;;;;;5069893;28;20048;-63
2023/08/25 04:39:55;;;;;;;173.70;71.90;;;;;;;;;;5069927;28;20128;-63
2023/08/25 04:42:26;;;;;;;212.33;79.20;;;;;;;;;;5069533;28;20509;-63
2023/08/25 04:44:52;;;;;;;216.57;77.43;;;;;;;;;;5069636;28;20181;-63
2023/08/25 04:47:18;;;;;;;169.33;71.30;;;;;;;;;;5069822;28;20519;-63
2023/08/25 04:49:44;;;;;;;204.40;78.83;;;;;;;;;;5064334;28;20044;-63
2023/08/25 04:52:10;;;;;;;248.87;85.47;;;;;;;;;;5069335;28;20089;-63
2023/08/25 04:54:36;;;;;;;267.83;90.60;;;;;;;;;;5069197;28;20124;-63
2023/08/25 04:57:02;;;;;;;267.80;90.13;;;;;;;;;;5068696;28;20170;-63
2023/08/25 04:59:28;;;;;;;243.53;86.40;;;;;;;;;;5069495;28;20040;-63
2023/08/25 05:01:54;;;;;;;243.10;86.07;;;;;;;;;;5069424;28;20517;-63
2023/08/25 05:04:20;;;;;;;349.83;100.87;;;;;;;;;;5069515;28;20049;-63
2023/08/25 05:06:46;;;;;;;349.60;100.60;;;;;;;;;;5069263;28;20499;-63
2023/08/25 05:09:12;;;;;;;407.77;109.47;;;;;;;;;;5068900;28;20045;-63
2023/08/25 05:11:39;;;;;;;561.80;124.53;;;;;;;;;;5058177;28;20048;-63
2023/08/25 05:14:05;;;;;;;602.70;126.63;;;;;;;;;;5058305;28;20461;-63
2023/08/25 05:16:31;;;;;;;577.10;126.27;;;;;;;;;;5069384;28;20056;-63
2023/08/25 05:18:57;;;;;;;452.10;112.47;;;;;;;;;;5063768;28;20048;-63
2023/08/25 05:21:23;;;;;;;586.33;128.67;;;;;;;;;;5068360;28;20098;-63
2023/08/25 05:23:53;;;;;;;507.90;117.10;;;;;;;;;;5068661;28;20044;-63
2023/08/25 05:26:19;;;;;;;683.30;134.93;;;;;;;;;;5068867;28;20090;-63
2023/08/25 05:28:45;;;;;;;632.27;126.90;;;;;;;;;;5066387;28;20072;-63
2023/08/25 05:31:11;;;;;;;645.77;127.27;;;;;;;;;;5056477;28;20507;-63
2023/08/25 05:33:38;;;;;;;531.73;117.30;;;;;;;;;;5068799;28;20136;-63
2023/08/25 05:36:04;;;;;;;608.93;127.63;;;;;;;;;;5067771;28;20457;-63
2023/08/25 05:38:30;;;;;;;578.67;120.63;;;;;;;;;;5068398;28;20083;-63
2023/08/25 05:40:56;;;;;;;603.33;133.10;;;;;;;;;;5062016;28;20518;-63
2023/08/25 05:43:22;;;;;;;343.13;95.83;;;;;;;;;;5056374;28;20048;-63
2023/08/25 05:45:48;;;;;;;526.93;121.53;;;;;;;;;;5058822;28;20080;-63
2023/08/25 05:48:14;;;;;;;501.03;121.53;;;;;;;;;;5060471;28;20048;-63
2023/08/25 05:50:40;;;;;;;443.57;113.17;;;;;;;;;;5048805;28;20437;-63
2023/08/25 05:53:06;;;;;;;411.93;108.13;;;;;;;;;;5055188;28;20044;-63
2023/08/25 05:55:32;;;;;;;386.47;104.60;;;;;;;;;;5068611;28;20548;-63
2023/08/25 05:57:58;;;;;;;353.50;102.53;;;;;;;;;;5054629;28;20457;-63
2023/08/25 06:00:24;;;;;;;214.27;82.83;;;;;;;;;;5048820;28;20049;-63
2023/08/25 06:02:50;;;;;;;259.60;86.73;;;;;;;;;;5048453;28;20060;-63
2023/08/25 06:05:16;;;;;;;302.07;93.17;;;;;;;;;;5048491;28;20491;-63
2023/08/25 06:07:42;;;;;;;271.03;89.43;;;;;;;;;;5047977;28;20075;-63
2023/08/25 06:10:08;;;;;;;222.10;85.23;;;;;;;;;;5062154;28;20047;-63
2023/08/25 06:12:34;;;;;;;194.70;79.67;;;;;;;;;;5069622;28;20063;-63
2023/08/25 06:15:00;;;;;;;192.57;77.13;;;;;;;;;;5068043;28;20052;-63
2023/08/25 06:17:26;;;;;;;205.63;78.83;;;;;;;;;;5068451;28;20048;-63
2023/08/25 06:19:52;;;;;;;222.67;82.77;;;;;;;;;;5067644;28;20052;-63
2023/08/25 06:22:18;;;;;;;167.87;70.50;;;;;;;;;;5068030;28;20414;-63
2023/08/25 06:24:44;;;;;;;160.47;72.10;;;;;;;;;;5067112;28;20044;-64
2023/08/25 06:27:10;;;;;;;172.23;73.87;;;;;;;;;;5067830;28;20048;-63
2023/08/25 06:29:36;;;;;;;133.77;65.47;;;;;;;;;;5067121;28;21545;-64
2023/08/25 06:32:02;;;;;;;141.83;67.87;;;;;;;;;;5066605;28;20518;-63
2023/08/25 06:34:28;;;;;;;121.83;61.77;;;;;;;;;;5047674;28;20088;-64
2023/08/25 06:36:55;;;;;;;105.87;59.77;;;;;;;;;;5047282;28;20048;-63
2023/08/25 06:39:22;;;;;;;100.70;57.07;;;;;;;;;;5047684;28;20109;-64
2023/08/25 06:41:48;;;;;;;95.20;55.57;;;;;;;;;;5050451;28;20052;-63
2023/08/25 06:44:14;;;;;;;90.00;52.90;;;;;;;;;;5066041;28;20044;-63
2023/08/25 06:46:40;;;;;;;86.97;51.27;;;;;;;;;;5063118;28;20045;-63
2023/08/25 06:49:06;;;;;;;108.33;55.80;;;;;;;;;;5063687;28;20086;-63
2023/08/25 06:51:32;;;;;;;91.17;52.77;;;;;;;;;;5066731;28;20533;-63
2023/08/25 06:54:01;;;;;;;94.40;52.93;;;;;;;;;;5061517;28;20049;-63
2023/08/25 06:56:27;;;;;;;82.03;50.50;;;;;;;;;;5056769;28;20045;-63
2023/08/25 06:58:53;;;;;;;87.33;50.93;;;;;;;;;;5067599;28;20059;-63
2023/08/25 07:01:19;;;;;;;81.93;50.57;;;;;;;;;;5051409;28;20041;-63
2023/08/25 07:03:45;;;;;;;84.07;51.37;;;;;;;;;;5065058;28;20051;-63
2023/08/25 07:06:11;;;;;;;77.67;47.57;;;;;;;;;;5067356;28;20048;-63
2023/08/25 07:08:37;;;;;;;78.57;48.43;;;;;;;;;;5066627;28;20498;-64
2023/08/25 07:11:03;;;;;;;65.20;42.77;;;;;;;;;;5065720;28;20040;-64
2023/08/25 07:13:31;;;;;;;54.33;40.60;;;;;;;;;;5062178;28;20190;-62
2023/08/25 07:15:58;;;;;;;57.43;41.13;;;;;;;;;;5068086;28;20044;-62
2023/08/25 07:18:24;;;;;;;52.03;41.23;;;;;;;;;;5066070;28;20041;-62
2023/08/25 07:20:50;;;;;;;55.87;40.17;;;;;;;;;;5066103;28;20490;-63
2023/08/25 07:23:18;;;;;;;49.73;39.50;;;;;;;;;;5067051;28;20132;-62
2023/08/25 07:25:44;;;;;;;47.27;38.53;;;;;;;;;;5067872;28;20119;-62
2023/08/25 07:28:10;;;;;;;44.50;37.43;;;;;;;;;;5065769;28;20194;-62
2023/08/25 07:30:37;;;;;;;39.17;34.20;;;;;;;;;;5067033;28;20036;-63
2023/08/25 07:33:04;;;;;;;40.87;34.30;;;;;;;;;;5065718;28;20406;-62
2023/08/25 07:35:32;;;;;;;36.63;31.57;;;;;;;;;;5066182;28;20451;-63
2023/08/25 07:37:58;;;;;;;38.03;31.63;;;;;;;;;;5067091;28;20080;-62
2023/08/25 07:40:24;;;;;;;37.33;32.83;;;;;;;;;;5065575;28;20041;-62
2023/08/25 07:42:50;;;;;;;35.67;31.57;;;;;;;;;;5066070;28;20044;-62
2023/08/25 07:45:16;;;;;;;32.43;28.67;;;;;;;;;;5070428;28;20048;-62
2023/08/25 07:47:42;;;;;;;34.57;28.70;;;;;;;;;;5070622;28;21167;-62
2023/08/25 07:50:08;;;;;;;30.83;27.57;;;;;;;;;;5055495;28;20037;-63
2023/08/25 07:52:34;;;;;;;32.23;28.73;;;;;;;;;;5067954;28;20094;-62
2023/08/25 07:55:00;;;;;;;35.17;29.43;;;;;;;;;;5070252;28;20044;-63
2023/08/25 07:57:27;;;;;;;29.97;26.63;;;;;;;;;;5070496;28;20044;-63
2023/08/25 07:59:53;;;;;;;30.37;27.13;;;;;;;;;;5070644;28;20423;-62
2023/08/25 08:02:19;;;;;;;31.17;26.73;;;;;;;;;;5069937;28;20181;-62
2023/08/25 08:04:45;;;;;;;29.27;26.30;;;;;;;;;;5069892;28;20051;-62
2023/08/25 08:07:11;;;;;;;27.67;24.90;;;;;;;;;;5070497;28;20044;-62
2023/08/25 08:09:37;;;;;;;29.20;25.37;;;;;;;;;;5069755;28;20036;-62
2023/08/25 08:12:03;;;;;;;26.47;23.60;;;;;;;;;;5070109;28;20048;-62
2023/08/25 08:14:29;;;;;;;28.50;24.17;;;;;;;;;;5070081;28;20052;-62
2023/08/25 08:16:56;;;;;;;28.87;25.17;;;;;;;;;;5070204;28;20178;-62
2023/08/25 08:19:22;;;;;;;28.60;25.53;;;;;;;;;;5069508;28;20041;-62
2023/08/25 08:21:48;;;;;;;32.40;25.40;;;;;;;;;;5068308;28;20052;-62
2023/08/25 08:24:14;;;;;;;29.73;26.63;;;;;;;;;;5070102;28;20051;-62
2023/08/25 08:26:40;;;;;;;29.57;26.37;;;;;;;;;;5069994;28;20052;-62
2023/08/25 08:29:06;;;;;;;33.87;27.63;;;;;;;;;;5069130;28;20059;-62
2023/08/25 08:31:32;;;;;;;30.27;26.03;;;;;;;;;;5069772;28;20040;-62
2023/08/25 08:33:58;;;;;;;31.53;28.17;;;;;;;;;;5069911;28;20106;-62
2023/08/25 08:36:24;;;;;;;31.00;27.67;;;;;;;;;;5069576;28;20048;-62
2023/08/25 08:38:50;;;;;;;29.93;26.90;;;;;;;;;;5069024;28;20127;-62
2023/08/25 08:41:17;;;;;;;32.77;29.27;;;;;;;;;;5069827;28;20044;-62
2023/08/25 08:43:45;;;;;;;31.10;27.33;;;;;;;;;;5069413;28;20045;-63
2023/08/25 08:46:15;;;;;;;30.90;27.63;;;;;;;;;;5069566;28;20041;-63
2023/08/25 08:48:41;;;;;;;30.93;25.70;;;;;;;;;;5068861;28;20052;-63
2023/08/25 08:51:08;;;;;;;29.27;24.83;;;;;;;;;;5069357;28;20122;-63
2023/08/25 08:53:35;;;;;;;27.77;24.83;;;;;;;;;;5069598;28;20047;-63
2023/08/25 08:56:01;;;;;;;29.30;26.10;;;;;;;;;;5068089;28;20426;-63
2023/08/25 08:58:28;;;;;;;27.37;24.20;;;;;;;;;;5068846;28;20044;-63
2023/08/25 09:00:56;;;;;;;29.50;25.00;;;;;;;;;;5069333;28;20045;-63
2023/08/25 09:03:23;;;;;;;26.77;24.03;;;;;;;;;;5069036;28;20048;-63
2023/08/25 09:05:52;;;;;;;29.40;26.30;;;;;;;;;;5069091;28;20127;-62
2023/08/25 09:08:19;;;;;;;28.97;26.07;;;;;;;;;;5068798;28;20503;-63
2023/08/25 09:10:45;;;;;;;31.47;24.53;;;;;;;;;;5068952;28;20044;-63
2023/08/25 09:13:12;;;;;;;25.83;23.33;;;;;;;;;;5069126;28;20453;-62
2023/08/25 09:15:38;;;;;;;25.07;22.47;;;;;;;;;;5069141;28;20436;-63
2023/08/25 09:18:08;;;;;;;25.33;22.63;;;;;;;;;;5069200;28;20052;-63
2023/08/25 09:20:35;;;;;;;28.30;24.27;;;;;;;;;;5068813;28;20916;-63
2023/08/25 09:23:02;;;;;;;25.63;23.00;;;;;;;;;;5068433;28;20056;-63
2023/08/25 09:25:28;;;;;;;26.23;22.47;;;;;;;;;;5068318;28;20045;-62
2023/08/25 09:27:57;;;;;;;25.57;22.87;;;;;;;;;;5068617;28;20087;-62
2023/08/25 09:30:33;;;;;;;24.17;21.53;;;;;;;;;;5068403;28;20055;-63
2023/08/25 09:33:05;;;;;;;25.47;21.80;;;;;;;;;;5068199;28;20122;-63
2023/08/25 09:35:32;;;;;;;26.48;22.73;;;;;;;;;;5068108;28;20521;-63
2023/08/25 09:37:58;;;;;;;25.80;21.43;;;;;;;;;;5068394;28;20538;-63
2023/08/25 09:40:24;;;;;;;23.93;20.33;;;;;;;;;;5068559;28;20044;-62
2023/08/25 09:42:50;;;;;;;22.97;20.47;;;;;;;;;;5068425;28;20408;-63
2023/08/25 09:45:16;;;;;;;23.57;20.17;;;;;;;;;;5068221;28;20087;-62
2023/08/25 09:47:42;;;;;;;20.80;18.70;;;;;;;;;;5067530;28;20052;-63
2023/08/25 09:50:08;;;;;;;20.17;17.97;;;;;;;;;;5068367;28;20517;-62
2023/08/25 09:52:37;;;;;;;20.07;17.97;;;;;;;;;;5068367;28;20044;-63
2023/08/25 09:55:03;;;;;;;20.77;17.40;;;;;;;;;;5068269;28;20044;-63
2023/08/25 09:57:30;;;;;;;20.30;16.13;;;;;;;;;;5067909;28;20048;-63
2023/08/25 09:59:56;;;;;;;18.13;16.03;;;;;;;;;;5068099;28;20040;-63
2023/08/25 10:02:22;;;;;;;18.77;16.73;;;;;;;;;;5068230;28;20048;-63
2023/08/25 10:04:49;;;;;;;17.87;15.43;;;;;;;;;;5068007;28;20036;-63
2023/08/25 10:07:15;;;;;;;17.23;15.30;;;;;;;;;;5067827;28;20548;-63
2023/08/25 10:09:41;;;;;;;18.20;14.73;;;;;;;;;;5067979;28;20052;-63
2023/08/25 10:12:07;;;;;;;17.88;14.48;;;;;;;;;;5068100;28;20052;-63
2023/08/25 10:14:34;;;;;;;20.17;14.98;;;;;;;;;;5067759;28;20060;-63
2023/08/25 10:17:01;;;;;;;14.27;12.10;;;;;;;;;;5067868;28;20533;-63
2023/08/25 10:19:28;;;;;;;16.48;11.70;;;;;;;;;;5068243;28;20048;-63
2023/08/25 10:21:55;;;;;;;13.25;10.77;;;;;;;;;;5067924;28;20040;-62
2023/08/25 10:24:28;;;;;;;12.82;10.13;;;;;;;;;;5068038;28;20044;-63
2023/08/25 10:26:55;;;;;;;12.10;8.73;;;;;;;;;;5067538;28;20048;-63
2023/08/25 10:29:21;;;;;;;13.48;12.13;;;;;;;;;;5067779;28;20499;-60
2023/08/25 10:31:48;;;;;;;12.38;9.38;;;;;;;;;;5067658;28;20051;-60
2023/08/25 10:34:31;;;;;;;15.75;11.02;;;;;;;;;;5067955;28;20040;-60
2023/08/25 10:36:57;;;;;;;;;;;;;;;;;;5068210;28;20052;-62
2023/08/25 10:39:43;;;;;;;18.30;15.68;;;;;;;;;;5067943;28;19947;-62
2023/08/25 10:42:09;;;;;;;21.17;15.02;;;;;;;;;;5067548;28;20769;-62
2023/08/25 10:44:40;;;;;;;20.77;17.67;;;;;;;;;;5059952;28;20075;-62
2023/08/25 10:47:06;;;;;;;22.45;20.10;;;;;;;;;;5047954;28;20055;-62
2023/08/25 10:49:37;;;;;;;25.20;22.77;;;;;;;;;;5047523;28;20052;-63
2023/08/25 10:52:15;;;;;;;33.83;26.53;;;;;;;;;;5067040;28;20139;-64
2023/08/25 10:54:42;;;;;;;31.17;25.37;;;;;;;;;;5067515;28;20443;-63
2023/08/25 10:57:18;;;;;;;50.43;30.87;;;;;;;;;;5065828;28;20052;-64
2023/08/25 10:59:46;;;;;;;66.37;39.57;;;;;;;;;;5047539;28;20439;-66
2023/08/25 11:02:12;;;;;;;52.33;36.60;;;;;;;;;;5047331;28;20037;-65
2023/08/25 11:04:39;;;;;;;54.07;38.40;;;;;;;;;;5047161;28;20048;-65
2023/08/25 11:07:05;;;;;;;45.93;34.47;;;;;;;;;;5047883;28;20477;-65
2023/08/25 11:09:32;;;;;;;50.27;36.67;;;;;;;;;;5047409;28;20045;-66
2023/08/25 11:12:06;;;;;;;44.43;35.30;;;;;;;;;;5048409;28;20491;-66
2023/08/25 11:14:34;;;;;;;44.30;35.90;;;;;;;;;;5047388;28;20056;-65
2023/08/25 11:17:01;;;;;;;90.70;50.97;;;;;;;;;;5045899;28;20136;-66
2023/08/25 11:19:28;;;;;;;47.90;36.80;;;;;;;;;;5050145;28;20049;-66
2023/08/25 11:22:01;;;;;;;65.27;43.50;;;;;;;;;;5051613;28;20048;-65
2023/08/25 11:24:29;;;;;;;;;;;;;;;;;;5051341;28;20049;-66
2023/08/25 11:26:55;;;;;;;48.30;34.57;;;;;;;;;;5056651;28;20366;-65
2023/08/25 11:29:21;;;;;;;40.73;33.77;;;;;;;;;;5057326;28;20087;-65
2023/08/25 11:31:47;;;;;;;68.37;43.27;;;;;;;;;;5050998;28;20053;-64
2023/08/25 11:34:14;;;;;;;47.80;35.97;;;;;;;;;;5051230;28;20045;-65
2023/08/25 11:36:41;;;;;;;39.67;31.47;;;;;;;;;;5050869;28;20105;-65
2023/08/25 11:39:15;;;;;;;52.13;37.57;;;;;;;;;;5051432;28;20060;-64
2023/08/25 11:41:41;;;;;;;33.67;30.03;;;;;;;;;;5049563;28;20052;-64
2023/08/25 11:44:07;;;;;;;37.88;31.02;;;;;;;;;;5052403;28;20441;-64
2023/08/25 11:46:33;;;;;;;32.75;28.20;;;;;;;;;;5062148;28;20036;-64
2023/08/25 11:48:59;;;;;;;50.90;36.37;;;;;;;;;;5062460;28;20049;-64
2023/08/25 11:51:27;;;;;;;35.83;30.13;;;;;;;;;;5070114;28;20044;-64
2023/08/25 11:53:53;;;;;;;43.43;33.77;;;;;;;;;;5069925;28;20081;-64
2023/08/25 11:56:19;;;;;;;31.43;25.70;;;;;;;;;;5067812;28;20048;-64
2023/08/25 11:58:49;;;;;;;25.90;23.00;;;;;;;;;;5069437;28;20036;-64
2023/08/25 12:01:15;;;;;;;16.67;13.60;;;;;;;;;;5070672;28;20101;-64
2023/08/25 12:03:44;;;;;;;14.43;11.53;;;;;;;;;;5068333;28;20490;-64
2023/08/25 12:06:11;;;;;;;18.53;14.43;;;;;;;;;;5070286;28;20045;-64
2023/08/25 12:08:37;;;;;;;14.87;13.27;;;;;;;;;;5070602;28;20495;-64
2023/08/25 12:11:05;;;;;;;19.23;14.50;;;;;;;;;;5070352;28;20033;-65
2023/08/25 12:13:32;;;;;;;17.80;13.83;;;;;;;;;;5056062;28;20126;-64
2023/08/25 12:15:58;;;;;;;15.43;13.77;;;;;;;;;;5050522;28;20051;-65
2023/08/25 12:18:32;;;;;;;19.80;15.03;;;;;;;;;;5050213;28;20215;-62
2023/08/25 12:20:58;;;;;;;18.50;14.53;;;;;;;;;;5050043;28;20053;-62
2023/08/25 12:23:24;;;;;;;15.60;13.60;;;;;;;;;;5049725;28;20337;-62
2023/08/25 12:25:50;;;;;;;16.23;13.30;;;;;;;;;;5050090;28;20552;-62
2023/08/25 12:28:17;;;;;;;19.07;14.37;;;;;;;;;;5050010;28;20060;-62
2023/08/25 12:30:43;;;;;;;17.30;14.40;;;;;;;;;;5049686;28;20052;-62
2023/08/25 12:33:09;;;;;;;19.47;14.50;;;;;;;;;;5049252;28;20056;-62
2023/08/25 12:35:35;;;;;;;17.00;14.37;;;;;;;;;;5049837;28;20495;-62
2023/08/25 12:38:02;;;;;;;15.17;13.20;;;;;;;;;;5049572;28;20045;-61
2023/08/25 12:40:28;;;;;;;16.17;13.83;;;;;;;;;;5049843;28;20045;-62
2023/08/25 12:42:55;;;;;;;15.17;13.03;;;;;;;;;;5049031;28;20498;-62
2023/08/25 12:45:21;;;;;;;15.33;12.87;;;;;;;;;;5049595;28;20127;-61
2023/08/25 12:47:47;;;;;;;13.63;12.17;;;;;;;;;;5047865;28;20041;-62
2023/08/25 12:50:14;;;;;;;16.33;14.13;;;;;;;;;;5049815;28;20139;-62
2023/08/25 12:52:40;;;;;;;22.17;16.20;;;;;;;;;;5048956;28;20431;-62
2023/08/25 12:55:10;;;;;;;26.53;17.53;;;;;;;;;;5049173;28;20053;-61
2023/08/25 12:57:36;;;;;;;27.80;19.60;;;;;;;;;;5049225;28;20511;-62
2023/08/25 13:00:02;;;;;;;31.27;22.63;;;;;;;;;;5049431;28;20064;-61
2023/08/25 13:02:28;;;;;;;45.00;28.30;;;;;;;;;;5049279;28;20045;-61
2023/08/25 13:04:54;;;;;;;53.53;32.83;;;;;;;;;;5048668;28;20045;-62
2023/08/25 13:07:20;;;;;;;56.17;32.87;;;;;;;;;;5048859;28;20045;-63
2023/08/25 13:09:46;;;;;;;70.83;36.73;;;;;;;;;;5049246;28;20037;-63
2023/08/25 13:12:12;;;;;;;105.17;44.07;;;;;;;;;;5048814;28;20056;-64
2023/08/25 13:14:38;;;;;;;74.67;40.40;;;;;;;;;;5048982;28;20128;-64
2023/08/25 13:17:04;;;;;;;70.37;41.70;;;;;;;;;;5048739;28;20127;-63
2023/08/25 13:19:31;;;;;;;93.37;45.07;;;;;;;;;;5049060;28;20040;-64
2023/08/25 13:21:57;;;;;;;107.67;50.37;;;;;;;;;;5048889;28;20059;-63
2023/08/25 13:24:23;;;;;;;87.73;44.33;;;;;;;;;;5048517;28;20045;-63
2023/08/25 13:26:49;;;;;;;100.40;49.80;;;;;;;;;;5049197;28;20131;-63
2023/08/25 13:29:15;;;;;;;90.43;48.23;;;;;;;;;;5049118;28;20083;-65
2023/08/25 13:31:41;;;;;;;100.97;50.27;;;;;;;;;;5049389;28;20471;-64
2023/08/25 13:34:07;;;;;;;142.53;58.00;;;;;;;;;;5048765;28;20110;-64
2023/08/25 13:36:33;;;;;;;120.73;54.60;;;;;;;;;;5048362;28;20072;-64
2023/08/25 13:38:59;;;;;;;135.50;57.40;;;;;;;;;;5048569;28;20430;-64
2023/08/25 13:41:25;;;;;;;97.30;49.13;;;;;;;;;;5048235;28;20084;-64
2023/08/25 13:43:51;;;;;;;93.80;50.10;;;;;;;;;;5048075;28;20099;-64
2023/08/25 13:46:17;;;;;;;119.27;54.50;;;;;;;;;;5048307;28;20094;-64
2023/08/25 13:48:43;;;;;;;73.63;45.00;;;;;;;;;;5048466;28;20047;-65
2023/08/25 13:51:09;;;;;;;95.87;48.50;;;;;;;;;;5048270;28;20044;-65
2023/08/25 13:53:37;;;;;;;100.20;51.07;;;;;;;;;;5048079;28;20438;-66
2023/08/25 13:56:03;;;;;;;134.10;56.63;;;;;;;;;;5048319;28;20049;-66
2023/08/25 13:58:29;;;;;;;106.03;53.00;;;;;;;;;;5048140;28;20079;-66
2023/08/25 14:00:55;;;;;;;219.57;69.23;;;;;;;;;;5048181;28;20077;-67
2023/08/25 14:03:23;;;;;;;150.10;58.03;;;;;;;;;;5047591;28;20506;-66
2023/08/25 14:05:50;;;;;;;65.17;43.73;;;;;;;;;;5047971;28;20495;-66
2023/08/25 14:08:16;;;;;;;63.93;39.83;;;;;;;;;;5048005;28;20084;-66
2023/08/25 14:10:42;;;;;;;40.13;32.33;;;;;;;;;;5030319;28;20041;-67